sensor_id;sensor_type;location;lat;lon;timestamp;P1;durP1;ratioP1;P2;durP2;ratioP2
11651;SDS011;5882;48.818;9.114;2023-08-24T00:00:17;3.15;;;2.95;;
11651;SDS011;5882;48.818;9.114;2023-08-24T00:03:04;3.55;;;3.22;;
11651;SDS011;5882;48.818;9.114;2023-08-24T00:05:49;3.33;;;3.13;;
11651;SDS011;5882;48.818;9.114;2023-08-24T00:08:35;3.03;;;2.78;;
11651;SDS011;5882;48.818;9.114;2023-08-24T00:11:20;3.42;;;3.13;;
11651;SDS011;5882;48.818;9.114;2023-08-24T00:14:05;3.00;;;2.78;;
11651;SDS011;5882;48.818;9.114;2023-08-24T00:16:50;3.17;;;2.97;;
11651;SDS011;5882;48.818;9.114;2023-08-24T00:19:36;3.33;;;3.10;;
11651;SDS011;5882;48.818;9.114;2023-08-24T00:22:21;2.83;;;2.63;;
11651;SDS011;5882;48.818;9.114;2023-08-24T00:25:07;3.17;;;2.97;;
11651;SDS011;5882;48.818;9.114;2023-08-24T00:27:52;3.20;;;2.90;;
11651;SDS011;5882;48.818;9.114;2023-08-24T00:30:38;2.95;;;2.75;;
11651;SDS011;5882;48.818;9.114;2023-08-24T00:33:23;3.40;;;3.20;;
11651;SDS011;5882;48.818;9.114;2023-08-24T00:36:09;3.00;;;2.80;;
11651;SDS011;5882;48.818;9.114;2023-08-24T00:38:54;2.95;;;2.72;;
11651;SDS011;5882;48.818;9.114;2023-08-24T00:41:39;2.97;;;2.78;;
11651;SDS011;5882;48.818;9.114;2023-08-24T00:44:25;2.97;;;2.78;;
11651;SDS011;5882;48.818;9.114;2023-08-24T00:47:10;3.08;;;2.78;;
11651;SDS011;5882;48.818;9.114;2023-08-24T00:49:56;3.30;;;3.08;;
11651;SDS011;5882;48.818;9.114;2023-08-24T00:52:42;3.83;;;3.20;;
11651;SDS011;5882;48.818;9.114;2023-08-24T00:55:27;3.72;;;3.42;;
11651;SDS011;5882;48.818;9.114;2023-08-24T00:58:13;3.40;;;3.10;;
11651;SDS011;5882;48.818;9.114;2023-08-24T01:00:58;3.10;;;2.80;;
11651;SDS011;5882;48.818;9.114;2023-08-24T01:03:43;3.13;;;2.92;;
11651;SDS011;5882;48.818;9.114;2023-08-24T01:06:28;3.42;;;3.17;;
11651;SDS011;5882;48.818;9.114;2023-08-24T01:09:14;3.33;;;3.08;;
11651;SDS011;5882;48.818;9.114;2023-08-24T01:12:00;3.65;;;3.20;;
11651;SDS011;5882;48.818;9.114;2023-08-24T01:14:49;3.05;;;2.85;;
11651;SDS011;5882;48.818;9.114;2023-08-24T01:17:35;3.47;;;3.22;;
11651;SDS011;5882;48.818;9.114;2023-08-24T01:20:20;3.67;;;3.38;;
11651;SDS011;5882;48.818;9.114;2023-08-24T01:23:07;3.70;;;3.40;;
11651;SDS011;5882;48.818;9.114;2023-08-24T01:26:00;3.20;;;3.00;;
11651;SDS011;5882;48.818;9.114;2023-08-24T01:28:47;3.65;;;3.35;;
11651;SDS011;5882;48.818;9.114;2023-08-24T01:31:33;3.30;;;3.10;;
11651;SDS011;5882;48.818;9.114;2023-08-24T01:34:17;3.42;;;3.17;;
11651;SDS011;5882;48.818;9.114;2023-08-24T01:37:02;3.40;;;3.20;;
11651;SDS011;5882;48.818;9.114;2023-08-24T01:39:51;3.42;;;3.22;;
11651;SDS011;5882;48.818;9.114;2023-08-24T01:42:41;3.45;;;3.22;;
11651;SDS011;5882;48.818;9.114;2023-08-24T01:45:28;3.10;;;2.90;;
11651;SDS011;5882;48.818;9.114;2023-08-24T01:48:14;3.47;;;3.28;;
11651;SDS011;5882;48.818;9.114;2023-08-24T01:51:00;3.83;;;3.42;;
11651;SDS011;5882;48.818;9.114;2023-08-24T01:53:46;3.65;;;3.35;;
11651;SDS011;5882;48.818;9.114;2023-08-24T01:56:31;3.72;;;3.42;;
11651;SDS011;5882;48.818;9.114;2023-08-24T01:59:18;3.90;;;3.60;;
11651;SDS011;5882;48.818;9.114;2023-08-24T02:02:03;3.90;;;3.50;;
11651;SDS011;5882;48.818;9.114;2023-08-24T02:04:48;3.63;;;3.33;;
11651;SDS011;5882;48.818;9.114;2023-08-24T02:07:33;4.13;;;3.75;;
11651;SDS011;5882;48.818;9.114;2023-08-24T02:10:18;3.45;;;3.15;;
11651;SDS011;5882;48.818;9.114;2023-08-24T02:13:03;3.80;;;3.50;;
11651;SDS011;5882;48.818;9.114;2023-08-24T02:15:49;3.55;;;3.25;;
11651;SDS011;5882;48.818;9.114;2023-08-24T02:18:34;3.25;;;2.97;;
11651;SDS011;5882;48.818;9.114;2023-08-24T02:21:19;3.38;;;3.10;;
11651;SDS011;5882;48.818;9.114;2023-08-24T02:24:04;3.05;;;2.85;;
11651;SDS011;5882;48.818;9.114;2023-08-24T02:26:50;4.15;;;3.35;;
11651;SDS011;5882;48.818;9.114;2023-08-24T02:29:36;4.00;;;3.50;;
11651;SDS011;5882;48.818;9.114;2023-08-24T02:32:23;4.22;;;3.33;;
11651;SDS011;5882;48.818;9.114;2023-08-24T02:35:08;3.85;;;3.55;;
11651;SDS011;5882;48.818;9.114;2023-08-24T02:37:53;3.30;;;3.10;;
11651;SDS011;5882;48.818;9.114;2023-08-24T02:40:39;3.50;;;3.20;;
11651;SDS011;5882;48.818;9.114;2023-08-24T02:43:24;3.53;;;3.22;;
11651;SDS011;5882;48.818;9.114;2023-08-24T02:46:09;3.55;;;3.30;;
11651;SDS011;5882;48.818;9.114;2023-08-24T02:48:55;3.90;;;3.60;;
11651;SDS011;5882;48.818;9.114;2023-08-24T02:51:41;3.70;;;3.40;;
11651;SDS011;5882;48.818;9.114;2023-08-24T02:54:25;4.28;;;3.75;;
11651;SDS011;5882;48.818;9.114;2023-08-24T02:57:11;3.70;;;3.40;;
11651;SDS011;5882;48.818;9.114;2023-08-24T02:59:56;3.75;;;3.22;;
11651;SDS011;5882;48.818;9.114;2023-08-24T03:02:41;3.78;;;3.47;;
11651;SDS011;5882;48.818;9.114;2023-08-24T03:05:27;3.47;;;3.17;;
11651;SDS011;5882;48.818;9.114;2023-08-24T03:08:12;4.05;;;3.75;;
11651;SDS011;5882;48.818;9.114;2023-08-24T03:10:57;4.35;;;3.53;;
11651;SDS011;5882;48.818;9.114;2023-08-24T03:13:42;3.65;;;3.38;;
11651;SDS011;5882;48.818;9.114;2023-08-24T03:16:27;3.58;;;3.30;;
11651;SDS011;5882;48.818;9.114;2023-08-24T03:19:12;4.03;;;3.72;;
11651;SDS011;5882;48.818;9.114;2023-08-24T03:21:59;3.85;;;3.55;;
11651;SDS011;5882;48.818;9.114;2023-08-24T03:24:44;3.70;;;3.40;;
11651;SDS011;5882;48.818;9.114;2023-08-24T03:27:29;3.53;;;3.28;;
11651;SDS011;5882;48.818;9.114;2023-08-24T03:30:15;4.53;;;4.13;;
11651;SDS011;5882;48.818;9.114;2023-08-24T03:33:00;3.97;;;3.67;;
11651;SDS011;5882;48.818;9.114;2023-08-24T03:35:46;4.07;;;3.78;;
11651;SDS011;5882;48.818;9.114;2023-08-24T03:38:32;3.75;;;3.45;;
11651;SDS011;5882;48.818;9.114;2023-08-24T03:41:17;3.72;;;3.42;;
11651;SDS011;5882;48.818;9.114;2023-08-24T03:44:02;3.80;;;3.50;;
11651;SDS011;5882;48.818;9.114;2023-08-24T03:46:48;3.75;;;3.45;;
11651;SDS011;5882;48.818;9.114;2023-08-24T03:49:33;3.65;;;3.40;;
11651;SDS011;5882;48.818;9.114;2023-08-24T03:52:17;3.58;;;3.28;;
11651;SDS011;5882;48.818;9.114;2023-08-24T03:55:04;3.47;;;3.17;;
11651;SDS011;5882;48.818;9.114;2023-08-24T03:57:49;3.63;;;3.20;;
11651;SDS011;5882;48.818;9.114;2023-08-24T04:00:35;3.35;;;3.15;;
11651;SDS011;5882;48.818;9.114;2023-08-24T04:03:23;4.32;;;3.50;;
11651;SDS011;5882;48.818;9.114;2023-08-24T04:06:07;3.88;;;3.35;;
11651;SDS011;5882;48.818;9.114;2023-08-24T04:08:53;3.70;;;3.40;;
11651;SDS011;5882;48.818;9.114;2023-08-24T04:11:40;3.90;;;3.60;;
11651;SDS011;5882;48.818;9.114;2023-08-24T04:14:25;4.13;;;3.83;;
11651;SDS011;5882;48.818;9.114;2023-08-24T04:17:10;4.57;;;3.97;;
11651;SDS011;5882;48.818;9.114;2023-08-24T04:19:55;4.50;;;4.13;;
11651;SDS011;5882;48.818;9.114;2023-08-24T04:22:40;3.95;;;3.65;;
11651;SDS011;5882;48.818;9.114;2023-08-24T04:25:25;3.75;;;3.45;;
11651;SDS011;5882;48.818;9.114;2023-08-24T04:28:11;3.88;;;3.58;;
11651;SDS011;5882;48.818;9.114;2023-08-24T04:30:56;4.47;;;3.97;;
11651;SDS011;5882;48.818;9.114;2023-08-24T04:33:41;3.63;;;3.38;;
11651;SDS011;5882;48.818;9.114;2023-08-24T04:36:26;4.03;;;3.72;;
11651;SDS011;5882;48.818;9.114;2023-08-24T04:39:11;3.78;;;3.47;;
11651;SDS011;5882;48.818;9.114;2023-08-24T04:41:56;4.20;;;3.90;;
11651;SDS011;5882;48.818;9.114;2023-08-24T04:44:42;3.83;;;3.53;;
11651;SDS011;5882;48.818;9.114;2023-08-24T04:47:27;4.65;;;4.25;;
11651;SDS011;5882;48.818;9.114;2023-08-24T04:50:13;4.90;;;4.50;;
11651;SDS011;5882;48.818;9.114;2023-08-24T04:52:57;4.55;;;4.15;;
11651;SDS011;5882;48.818;9.114;2023-08-24T04:55:43;5.05;;;4.65;;
11651;SDS011;5882;48.818;9.114;2023-08-24T04:58:28;4.47;;;4.18;;
11651;SDS011;5882;48.818;9.114;2023-08-24T05:01:15;4.28;;;3.97;;
11651;SDS011;5882;48.818;9.114;2023-08-24T05:04:00;4.60;;;4.20;;
11651;SDS011;5882;48.818;9.114;2023-08-24T05:06:45;4.82;;;4.35;;
11651;SDS011;5882;48.818;9.114;2023-08-24T05:09:30;4.38;;;4.00;;
11651;SDS011;5882;48.818;9.114;2023-08-24T05:12:15;4.25;;;3.95;;
11651;SDS011;5882;48.818;9.114;2023-08-24T05:15:00;4.18;;;3.88;;
11651;SDS011;5882;48.818;9.114;2023-08-24T05:17:46;5.47;;;4.57;;
11651;SDS011;5882;48.818;9.114;2023-08-24T05:20:32;5.25;;;4.75;;
11651;SDS011;5882;48.818;9.114;2023-08-24T05:23:17;4.38;;;3.97;;
11651;SDS011;5882;48.818;9.114;2023-08-24T05:26:02;4.32;;;4.00;;
11651;SDS011;5882;48.818;9.114;2023-08-24T05:28:48;4.93;;;4.47;;
11651;SDS011;5882;48.818;9.114;2023-08-24T05:31:33;4.55;;;4.15;;
11651;SDS011;5882;48.818;9.114;2023-08-24T05:34:19;4.30;;;4.00;;
11651;SDS011;5882;48.818;9.114;2023-08-24T05:37:04;4.45;;;4.05;;
11651;SDS011;5882;48.818;9.114;2023-08-24T05:39:49;4.60;;;3.92;;
11651;SDS011;5882;48.818;9.114;2023-08-24T05:42:34;4.28;;;3.90;;
11651;SDS011;5882;48.818;9.114;2023-08-24T05:45:20;4.35;;;4.05;;
11651;SDS011;5882;48.818;9.114;2023-08-24T05:48:08;5.85;;;4.35;;
11651;SDS011;5882;48.818;9.114;2023-08-24T05:50:54;4.85;;;4.35;;
11651;SDS011;5882;48.818;9.114;2023-08-24T05:53:39;3.90;;;3.55;;
11651;SDS011;5882;48.818;9.114;2023-08-24T05:56:25;4.13;;;3.83;;
11651;SDS011;5882;48.818;9.114;2023-08-24T05:59:11;4.45;;;4.05;;
11651;SDS011;5882;48.818;9.114;2023-08-24T06:01:56;5.78;;;3.80;;
11651;SDS011;5882;48.818;9.114;2023-08-24T06:04:41;4.20;;;3.85;;
11651;SDS011;5882;48.818;9.114;2023-08-24T06:07:27;4.47;;;4.07;;
11651;SDS011;5882;48.818;9.114;2023-08-24T06:10:13;4.50;;;4.10;;
11651;SDS011;5882;48.818;9.114;2023-08-24T06:12:59;4.22;;;3.92;;
11651;SDS011;5882;48.818;9.114;2023-08-24T06:15:46;3.35;;;3.15;;
11651;SDS011;5882;48.818;9.114;2023-08-24T06:18:31;3.53;;;3.22;;
11651;SDS011;5882;48.818;9.114;2023-08-24T06:21:16;4.65;;;4.25;;
11651;SDS011;5882;48.818;9.114;2023-08-24T06:24:03;4.57;;;4.10;;
11651;SDS011;5882;48.818;9.114;2023-08-24T06:26:49;5.95;;;3.95;;
11651;SDS011;5882;48.818;9.114;2023-08-24T06:29:33;3.90;;;3.60;;
11651;SDS011;5882;48.818;9.114;2023-08-24T06:32:19;4.72;;;4.00;;
11651;SDS011;5882;48.818;9.114;2023-08-24T06:35:04;4.30;;;3.90;;
11651;SDS011;5882;48.818;9.114;2023-08-24T06:37:50;4.85;;;4.45;;
11651;SDS011;5882;48.818;9.114;2023-08-24T06:40:36;4.80;;;4.40;;
11651;SDS011;5882;48.818;9.114;2023-08-24T06:43:22;4.38;;;3.92;;
11651;SDS011;5882;48.818;9.114;2023-08-24T06:46:07;5.22;;;4.75;;
11651;SDS011;5882;48.818;9.114;2023-08-24T06:48:52;4.63;;;4.22;;
11651;SDS011;5882;48.818;9.114;2023-08-24T06:51:37;4.82;;;4.30;;
11651;SDS011;5882;48.818;9.114;2023-08-24T06:54:22;4.50;;;4.20;;
11651;SDS011;5882;48.818;9.114;2023-08-24T06:57:09;6.55;;;4.65;;
11651;SDS011;5882;48.818;9.114;2023-08-24T06:59:54;4.50;;;4.10;;
11651;SDS011;5882;48.818;9.114;2023-08-24T07:02:40;4.75;;;4.35;;
11651;SDS011;5882;48.818;9.114;2023-08-24T07:05:25;4.88;;;4.47;;
11651;SDS011;5882;48.818;9.114;2023-08-24T07:08:10;4.03;;;3.72;;
11651;SDS011;5882;48.818;9.114;2023-08-24T07:10:55;4.25;;;3.95;;
11651;SDS011;5882;48.818;9.114;2023-08-24T07:13:41;4.47;;;4.18;;
11651;SDS011;5882;48.818;9.114;2023-08-24T07:16:26;4.70;;;4.22;;
11651;SDS011;5882;48.818;9.114;2023-08-24T07:19:12;4.05;;;3.75;;
11651;SDS011;5882;48.818;9.114;2023-08-24T07:21:56;4.10;;;3.80;;
11651;SDS011;5882;48.818;9.114;2023-08-24T07:24:42;4.05;;;3.75;;
11651;SDS011;5882;48.818;9.114;2023-08-24T07:27:27;5.90;;;4.63;;
11651;SDS011;5882;48.818;9.114;2023-08-24T07:30:14;4.50;;;4.07;;
11651;SDS011;5882;48.818;9.114;2023-08-24T07:32:59;4.60;;;4.20;;
11651;SDS011;5882;48.818;9.114;2023-08-24T07:35:44;3.95;;;3.60;;
11651;SDS011;5882;48.818;9.114;2023-08-24T07:38:31;4.03;;;3.72;;
11651;SDS011;5882;48.818;9.114;2023-08-24T07:41:15;4.57;;;4.18;;
11651;SDS011;5882;48.818;9.114;2023-08-24T07:44:01;4.78;;;4.38;;
11651;SDS011;5882;48.818;9.114;2023-08-24T07:46:48;4.10;;;3.80;;
11651;SDS011;5882;48.818;9.114;2023-08-24T07:49:33;4.22;;;3.92;;
11651;SDS011;5882;48.818;9.114;2023-08-24T07:52:18;4.53;;;4.13;;
11651;SDS011;5882;48.818;9.114;2023-08-24T07:55:05;5.07;;;4.47;;
11651;SDS011;5882;48.818;9.114;2023-08-24T07:57:50;4.65;;;4.25;;
11651;SDS011;5882;48.818;9.114;2023-08-24T08:00:35;4.00;;;3.70;;
11651;SDS011;5882;48.818;9.114;2023-08-24T08:03:22;4.15;;;3.75;;
11651;SDS011;5882;48.818;9.114;2023-08-24T08:06:07;3.70;;;3.42;;
11651;SDS011;5882;48.818;9.114;2023-08-24T08:08:52;4.50;;;4.18;;
11651;SDS011;5882;48.818;9.114;2023-08-24T08:11:37;4.50;;;4.10;;
11651;SDS011;5882;48.818;9.114;2023-08-24T08:14:23;3.47;;;3.17;;
11651;SDS011;5882;48.818;9.114;2023-08-24T08:17:08;3.90;;;3.60;;
11651;SDS011;5882;48.818;9.114;2023-08-24T08:19:55;4.32;;;4.03;;
11651;SDS011;5882;48.818;9.114;2023-08-24T08:22:40;4.03;;;3.72;;
11651;SDS011;5882;48.818;9.114;2023-08-24T08:25:25;4.10;;;3.80;;
11651;SDS011;5882;48.818;9.114;2023-08-24T08:28:10;4.20;;;3.83;;
11651;SDS011;5882;48.818;9.114;2023-08-24T08:30:55;4.10;;;3.80;;
11651;SDS011;5882;48.818;9.114;2023-08-24T08:33:40;4.05;;;3.65;;
11651;SDS011;5882;48.818;9.114;2023-08-24T08:36:27;3.92;;;3.58;;
11651;SDS011;5882;48.818;9.114;2023-08-24T08:39:13;4.07;;;3.53;;
11651;SDS011;5882;48.818;9.114;2023-08-24T08:41:58;3.50;;;3.20;;
11651;SDS011;5882;48.818;9.114;2023-08-24T08:44:45;3.85;;;3.55;;
11651;SDS011;5882;48.818;9.114;2023-08-24T08:47:30;3.33;;;3.13;;
11651;SDS011;5882;48.818;9.114;2023-08-24T08:50:16;3.40;;;3.15;;
11651;SDS011;5882;48.818;9.114;2023-08-24T08:53:03;3.35;;;3.05;;
11651;SDS011;5882;48.818;9.114;2023-08-24T08:55:48;3.72;;;3.40;;
11651;SDS011;5882;48.818;9.114;2023-08-24T08:58:34;3.58;;;3.28;;
11651;SDS011;5882;48.818;9.114;2023-08-24T09:01:20;4.03;;;3.72;;
11651;SDS011;5882;48.818;9.114;2023-08-24T09:04:05;3.50;;;3.20;;
11651;SDS011;5882;48.818;9.114;2023-08-24T09:06:51;3.22;;;3.00;;
11651;SDS011;5882;48.818;9.114;2023-08-24T09:09:37;3.17;;;2.85;;
11651;SDS011;5882;48.818;9.114;2023-08-24T09:12:23;3.38;;;2.80;;
11651;SDS011;5882;48.818;9.114;2023-08-24T09:15:09;3.22;;;2.88;;
11651;SDS011;5882;48.818;9.114;2023-08-24T09:17:54;3.35;;;2.95;;
11651;SDS011;5882;48.818;9.114;2023-08-24T09:20:40;3.08;;;2.80;;
11651;SDS011;5882;48.818;9.114;2023-08-24T09:23:26;2.92;;;2.72;;
11651;SDS011;5882;48.818;9.114;2023-08-24T09:26:13;3.05;;;2.72;;
11651;SDS011;5882;48.818;9.114;2023-08-24T09:28:58;3.08;;;2.85;;
11651;SDS011;5882;48.818;9.114;2023-08-24T09:31:44;2.80;;;2.60;;
11651;SDS011;5882;48.818;9.114;2023-08-24T09:34:29;3.45;;;3.05;;
11651;SDS011;5882;48.818;9.114;2023-08-24T09:37:14;3.40;;;3.13;;
11651;SDS011;5882;48.818;9.114;2023-08-24T09:40:03;3.10;;;2.80;;
11651;SDS011;5882;48.818;9.114;2023-08-24T09:42:52;2.88;;;2.65;;
11651;SDS011;5882;48.818;9.114;2023-08-24T09:45:37;3.03;;;2.83;;
11651;SDS011;5882;48.818;9.114;2023-08-24T09:48:22;2.70;;;2.55;;
11651;SDS011;5882;48.818;9.114;2023-08-24T09:51:08;2.90;;;2.70;;
11651;SDS011;5882;48.818;9.114;2023-08-24T09:53:56;2.85;;;2.65;;
11651;SDS011;5882;48.818;9.114;2023-08-24T09:56:42;3.22;;;3.03;;
11651;SDS011;5882;48.818;9.114;2023-08-24T09:59:30;3.17;;;2.97;;
11651;SDS011;5882;48.818;9.114;2023-08-24T10:02:17;3.35;;;3.05;;
11651;SDS011;5882;48.818;9.114;2023-08-24T10:05:05;3.50;;;3.20;;
11651;SDS011;5882;48.818;9.114;2023-08-24T10:07:51;3.33;;;3.05;;
11651;SDS011;5882;48.818;9.114;2023-08-24T10:10:37;3.55;;;3.20;;
11651;SDS011;5882;48.818;9.114;2023-08-24T10:13:27;3.10;;;2.90;;
11651;SDS011;5882;48.818;9.114;2023-08-24T10:16:15;4.68;;;2.95;;
11651;SDS011;5882;48.818;9.114;2023-08-24T10:19:02;2.75;;;2.55;;
11651;SDS011;5882;48.818;9.114;2023-08-24T10:21:47;3.13;;;2.92;;
11651;SDS011;5882;48.818;9.114;2023-08-24T10:24:34;3.47;;;2.85;;
11651;SDS011;5882;48.818;9.114;2023-08-24T10:27:20;3.70;;;3.40;;
11651;SDS011;5882;48.818;9.114;2023-08-24T10:30:07;3.50;;;3.20;;
11651;SDS011;5882;48.818;9.114;2023-08-24T10:32:54;3.58;;;3.28;;
11651;SDS011;5882;48.818;9.114;2023-08-24T10:35:40;3.20;;;3.00;;
11651;SDS011;5882;48.818;9.114;2023-08-24T10:38:26;3.63;;;3.33;;
11651;SDS011;5882;48.818;9.114;2023-08-24T10:41:11;3.42;;;3.13;;
11651;SDS011;5882;48.818;9.114;2023-08-24T10:44:04;3.22;;;3.03;;
11651;SDS011;5882;48.818;9.114;2023-08-24T10:49:59;2.97;;;2.78;;
11651;SDS011;5882;48.818;9.114;2023-08-24T10:52:44;3.50;;;3.20;;
11651;SDS011;5882;48.818;9.114;2023-08-24T10:55:30;3.63;;;3.33;;
11651;SDS011;5882;48.818;9.114;2023-08-24T10:58:19;3.67;;;3.38;;
11651;SDS011;5882;48.818;9.114;2023-08-24T11:01:06;3.97;;;3.10;;
11651;SDS011;5882;48.818;9.114;2023-08-24T11:03:55;3.10;;;2.90;;
11651;SDS011;5882;48.818;9.114;2023-08-24T11:06:54;3.50;;;3.30;;
11651;SDS011;5882;48.818;9.114;2023-08-24T11:09:46;3.67;;;3.42;;
11651;SDS011;5882;48.818;9.114;2023-08-24T11:12:39;3.25;;;3.00;;
11651;SDS011;5882;48.818;9.114;2023-08-24T11:15:46;3.35;;;3.05;;
11651;SDS011;5882;48.818;9.114;2023-08-24T11:18:34;3.42;;;3.17;;
11651;SDS011;5882;48.818;9.114;2023-08-24T11:21:24;3.83;;;3.63;;
11651;SDS011;5882;48.818;9.114;2023-08-24T11:24:12;3.60;;;3.30;;
11651;SDS011;5882;48.818;9.114;2023-08-24T11:26:57;3.70;;;3.40;;
11651;SDS011;5882;48.818;9.114;2023-08-24T11:29:44;4.05;;;3.72;;
11651;SDS011;5882;48.818;9.114;2023-08-24T11:32:29;4.35;;;3.95;;
11651;SDS011;5882;48.818;9.114;2023-08-24T11:35:15;3.60;;;3.30;;
11651;SDS011;5882;48.818;9.114;2023-08-24T11:38:00;3.30;;;3.10;;
11651;SDS011;5882;48.818;9.114;2023-08-24T11:40:47;3.92;;;3.63;;
11651;SDS011;5882;48.818;9.114;2023-08-24T11:43:32;3.20;;;2.90;;
11651;SDS011;5882;48.818;9.114;2023-08-24T11:46:17;3.88;;;3.58;;
11651;SDS011;5882;48.818;9.114;2023-08-24T11:49:04;3.70;;;3.40;;
11651;SDS011;5882;48.818;9.114;2023-08-24T11:51:50;4.43;;;4.03;;
11651;SDS011;5882;48.818;9.114;2023-08-24T11:54:35;3.63;;;3.33;;
11651;SDS011;5882;48.818;9.114;2023-08-24T11:57:24;5.10;;;3.53;;
11651;SDS011;5882;48.818;9.114;2023-08-24T12:00:12;4.00;;;3.70;;
11651;SDS011;5882;48.818;9.114;2023-08-24T12:02:58;4.18;;;3.78;;
11651;SDS011;5882;48.818;9.114;2023-08-24T12:05:43;3.72;;;3.42;;
11651;SDS011;5882;48.818;9.114;2023-08-24T12:08:29;4.57;;;3.60;;
11651;SDS011;5882;48.818;9.114;2023-08-24T12:11:15;3.85;;;3.33;;
11651;SDS011;5882;48.818;9.114;2023-08-24T12:14:03;3.70;;;3.40;;
11651;SDS011;5882;48.818;9.114;2023-08-24T12:16:49;3.80;;;3.50;;
11651;SDS011;5882;48.818;9.114;2023-08-24T12:19:40;3.25;;;2.92;;
11651;SDS011;5882;48.818;9.114;2023-08-24T12:22:29;3.45;;;3.17;;
11651;SDS011;5882;48.818;9.114;2023-08-24T12:25:14;3.50;;;3.30;;
11651;SDS011;5882;48.818;9.114;2023-08-24T12:28:08;3.47;;;3.17;;
11651;SDS011;5882;48.818;9.114;2023-08-24T12:30:55;3.40;;;3.10;;
11651;SDS011;5882;48.818;9.114;2023-08-24T12:33:40;3.60;;;3.13;;
11651;SDS011;5882;48.818;9.114;2023-08-24T12:36:27;3.70;;;3.33;;
11651;SDS011;5882;48.818;9.114;2023-08-24T12:39:12;3.17;;;2.97;;
11651;SDS011;5882;48.818;9.114;2023-08-24T12:41:58;3.33;;;3.13;;
11651;SDS011;5882;48.818;9.114;2023-08-24T12:44:44;3.47;;;3.17;;
11651;SDS011;5882;48.818;9.114;2023-08-24T12:47:31;3.70;;;3.35;;
11651;SDS011;5882;48.818;9.114;2023-08-24T12:50:18;3.97;;;3.47;;
11651;SDS011;5882;48.818;9.114;2023-08-24T12:53:05;3.33;;;3.13;;
11651;SDS011;5882;48.818;9.114;2023-08-24T12:55:50;4.57;;;3.25;;
11651;SDS011;5882;48.818;9.114;2023-08-24T12:58:37;3.78;;;3.47;;
11651;SDS011;5882;48.818;9.114;2023-08-24T13:01:22;4.30;;;3.17;;
11651;SDS011;5882;48.818;9.114;2023-08-24T13:04:09;3.22;;;2.92;;
11651;SDS011;5882;48.818;9.114;2023-08-24T13:06:54;3.40;;;3.20;;
11651;SDS011;5882;48.818;9.114;2023-08-24T13:09:39;3.47;;;3.17;;
11651;SDS011;5882;48.818;9.114;2023-08-24T13:12:24;3.40;;;3.15;;
11651;SDS011;5882;48.818;9.114;2023-08-24T13:15:10;3.80;;;3.50;;
11651;SDS011;5882;48.818;9.114;2023-08-24T13:17:56;3.30;;;3.00;;
11651;SDS011;5882;48.818;9.114;2023-08-24T13:20:42;3.38;;;3.17;;
11651;SDS011;5882;48.818;9.114;2023-08-24T13:23:29;3.47;;;3.22;;
11651;SDS011;5882;48.818;9.114;2023-08-24T13:26:17;3.38;;;3.10;;
11651;SDS011;5882;48.818;9.114;2023-08-24T13:29:03;6.05;;;3.40;;
11651;SDS011;5882;48.818;9.114;2023-08-24T13:31:49;3.67;;;3.38;;
11651;SDS011;5882;48.818;9.114;2023-08-24T13:34:34;3.45;;;3.25;;
11651;SDS011;5882;48.818;9.114;2023-08-24T13:37:20;3.65;;;3.33;;
11651;SDS011;5882;48.818;9.114;2023-08-24T13:40:06;4.20;;;3.38;;
11651;SDS011;5882;48.818;9.114;2023-08-24T13:42:52;3.50;;;3.20;;
11651;SDS011;5882;48.818;9.114;2023-08-24T13:45:38;3.25;;;3.05;;
11651;SDS011;5882;48.818;9.114;2023-08-24T13:48:23;3.20;;;3.00;;
11651;SDS011;5882;48.818;9.114;2023-08-24T13:51:10;4.50;;;3.20;;
11651;SDS011;5882;48.818;9.114;2023-08-24T13:53:57;3.85;;;3.55;;
11651;SDS011;5882;48.818;9.114;2023-08-24T13:56:46;3.67;;;3.38;;
11651;SDS011;5882;48.818;9.114;2023-08-24T13:59:31;3.30;;;3.10;;
11651;SDS011;5882;48.818;9.114;2023-08-24T14:02:17;3.28;;;2.97;;
11651;SDS011;5882;48.818;9.114;2023-08-24T14:05:03;3.35;;;3.05;;
11651;SDS011;5882;48.818;9.114;2023-08-24T14:07:49;3.17;;;2.97;;
11651;SDS011;5882;48.818;9.114;2023-08-24T14:10:39;3.30;;;3.10;;
11651;SDS011;5882;48.818;9.114;2023-08-24T14:13:24;3.50;;;3.30;;
11651;SDS011;5882;48.818;9.114;2023-08-24T14:16:09;5.78;;;3.13;;
11651;SDS011;5882;48.818;9.114;2023-08-24T14:18:53;2.95;;;2.75;;
11651;SDS011;5882;48.818;9.114;2023-08-24T14:21:38;3.20;;;2.90;;
11651;SDS011;5882;48.818;9.114;2023-08-24T14:24:24;3.40;;;3.20;;
11651;SDS011;5882;48.818;9.114;2023-08-24T14:27:11;3.67;;;3.33;;
11651;SDS011;5882;48.818;9.114;2023-08-24T14:29:56;3.33;;;2.97;;
11651;SDS011;5882;48.818;9.114;2023-08-24T14:32:41;3.40;;;3.10;;
11651;SDS011;5882;48.818;9.114;2023-08-24T14:35:26;2.85;;;2.63;;
11651;SDS011;5882;48.818;9.114;2023-08-24T14:38:12;3.00;;;2.67;;
11651;SDS011;5882;48.818;9.114;2023-08-24T14:40:56;3.38;;;2.63;;
11651;SDS011;5882;48.818;9.114;2023-08-24T14:43:45;3.15;;;2.95;;
11651;SDS011;5882;48.818;9.114;2023-08-24T14:46:30;2.83;;;2.63;;
11651;SDS011;5882;48.818;9.114;2023-08-24T14:49:16;2.78;;;2.58;;
11651;SDS011;5882;48.818;9.114;2023-08-24T14:52:05;5.38;;;3.20;;
11651;SDS011;5882;48.818;9.114;2023-08-24T14:54:50;3.05;;;2.83;;
11651;SDS011;5882;48.818;9.114;2023-08-24T14:57:35;5.85;;;3.85;;
11651;SDS011;5882;48.818;9.114;2023-08-24T15:00:22;6.20;;;3.97;;
11651;SDS011;5882;48.818;9.114;2023-08-24T15:03:08;3.92;;;3.10;;
11651;SDS011;5882;48.818;9.114;2023-08-24T15:05:58;4.40;;;2.00;;
11651;SDS011;5882;48.818;9.114;2023-08-24T15:08:44;2.28;;;2.08;;
11651;SDS011;5882;48.818;9.114;2023-08-24T15:11:29;1.70;;;1.60;;
11651;SDS011;5882;48.818;9.114;2023-08-24T15:14:17;2.10;;;2.00;;
11651;SDS011;5882;48.818;9.114;2023-08-24T15:17:03;2.17;;;1.98;;
11651;SDS011;5882;48.818;9.114;2023-08-24T15:19:49;2.45;;;2.25;;
11651;SDS011;5882;48.818;9.114;2023-08-24T15:22:34;2.75;;;2.55;;
11651;SDS011;5882;48.818;9.114;2023-08-24T15:25:20;2.78;;;2.58;;
11651;SDS011;5882;48.818;9.114;2023-08-24T15:28:05;2.70;;;2.50;;
11651;SDS011;5882;48.818;9.114;2023-08-24T15:30:50;2.63;;;2.40;;
11651;SDS011;5882;48.818;9.114;2023-08-24T15:33:37;2.40;;;2.20;;
11651;SDS011;5882;48.818;9.114;2023-08-24T15:36:22;2.40;;;2.20;;
11651;SDS011;5882;48.818;9.114;2023-08-24T15:39:07;2.17;;;1.98;;
11651;SDS011;5882;48.818;9.114;2023-08-24T15:41:52;2.50;;;2.30;;
11651;SDS011;5882;48.818;9.114;2023-08-24T15:44:38;3.17;;;2.13;;
11651;SDS011;5882;48.818;9.114;2023-08-24T15:47:24;2.30;;;2.20;;
11651;SDS011;5882;48.818;9.114;2023-08-24T15:50:11;2.22;;;2.10;;
11651;SDS011;5882;48.818;9.114;2023-08-24T15:52:59;2.53;;;1.98;;
11651;SDS011;5882;48.818;9.114;2023-08-24T15:55:44;2.00;;;1.90;;
11651;SDS011;5882;48.818;9.114;2023-08-24T15:58:29;2.08;;;1.98;;
11651;SDS011;5882;48.818;9.114;2023-08-24T16:01:15;2.45;;;2.25;;
11651;SDS011;5882;48.818;9.114;2023-08-24T16:04:00;4.13;;;2.22;;
11651;SDS011;5882;48.818;9.114;2023-08-24T16:06:47;2.60;;;2.35;;
11651;SDS011;5882;48.818;9.114;2023-08-24T16:09:32;2.50;;;2.30;;
11651;SDS011;5882;48.818;9.114;2023-08-24T16:12:18;3.15;;;1.67;;
11651;SDS011;5882;48.818;9.114;2023-08-24T16:15:04;1.80;;;1.70;;
11651;SDS011;5882;48.818;9.114;2023-08-24T16:17:49;2.03;;;1.75;;
11651;SDS011;5882;48.818;9.114;2023-08-24T16:20:37;3.05;;;2.13;;
11651;SDS011;5882;48.818;9.114;2023-08-24T16:23:24;1.70;;;1.60;;
11651;SDS011;5882;48.818;9.114;2023-08-24T16:26:09;2.28;;;2.10;;
11651;SDS011;5882;48.818;9.114;2023-08-24T16:28:54;1.70;;;1.60;;
11651;SDS011;5882;48.818;9.114;2023-08-24T16:31:39;2.47;;;2.28;;
11651;SDS011;5882;48.818;9.114;2023-08-24T16:34:23;2.33;;;2.20;;
11651;SDS011;5882;48.818;9.114;2023-08-24T16:37:09;2.00;;;1.90;;
11651;SDS011;5882;48.818;9.114;2023-08-24T16:39:58;3.55;;;2.42;;
11651;SDS011;5882;48.818;9.114;2023-08-24T16:42:44;3.03;;;2.42;;
11651;SDS011;5882;48.818;9.114;2023-08-24T16:45:29;3.10;;;2.45;;
11651;SDS011;5882;48.818;9.114;2023-08-24T16:48:14;2.20;;;2.00;;
11651;SDS011;5882;48.818;9.114;2023-08-24T16:51:00;2.35;;;2.08;;
11651;SDS011;5882;48.818;9.114;2023-08-24T16:53:46;2.83;;;2.40;;
11651;SDS011;5882;48.818;9.114;2023-08-24T16:56:33;2.10;;;2.00;;